Time;durP1;ratioP1;P1;durP2;ratioP2;P2;SDS_P1;SDS_P2;PMS_P1;PMS_P2;Temp;Humidity;BMP_temperature;BMP_pressure;BME280_temperature;BME280_humidity;BME280_pressure;Samples;Min_cycle;Max_cycle;Signal;HPM_P1;HPM_P2
2022/03/31 00:02:22;;;;;;;;;;;4.60;99.90;;;;;;5125117;27;19951;-61
2022/03/31 00:04:48;;;;;;;;;;;4.50;99.90;;;;;;5112896;28;19907;-62
2022/03/31 00:07:13;;;;;;;;;;;4.60;99.90;;;;;;5126647;28;19919;-62
2022/03/31 00:09:39;;;;;;;;;;;4.60;99.90;;;;;;5122930;27;19949;-63
2022/03/31 00:12:05;;;;;;;;;;;4.60;99.90;;;;;;5127534;28;20373;-61
2022/03/31 00:14:30;;;;;;;;;;;4.60;99.90;;;;;;5131180;28;20250;-61
2022/03/31 00:16:56;;;;;;;;;;;4.70;99.90;;;;;;5121390;28;20319;-62
2022/03/31 00:19:21;;;;;;;;;;;4.70;99.90;;;;;;5126350;27;19934;-63
2022/03/31 00:21:48;;;;;;;;;;;4.70;99.90;;;;;;5104288;28;19912;-62
2022/03/31 00:24:14;;;;;;;;;;;4.60;99.90;;;;;;5128944;27;19911;-62
2022/03/31 00:26:39;;;;;;;;;;;4.50;99.90;;;;;;5122417;27;19980;-62
2022/03/31 00:29:05;;;;;;;;;;;4.60;99.90;;;;;;5124507;27;20368;-62
2022/03/31 00:31:31;;;;;;;;;;;4.60;99.90;;;;;;5110573;27;19923;-62
2022/03/31 00:33:56;;;;;;;;;;;4.60;99.90;;;;;;5125782;27;20024;-62
2022/03/31 00:36:22;;;;;;;;;;;4.60;99.90;;;;;;5111764;27;20371;-60
2022/03/31 00:41:35;;;;;;;;;;;4.50;99.90;;;;;;5126191;27;19957;-63
2022/03/31 00:44:01;;;;;;;;;;;4.50;99.90;;;;;;5131564;27;20377;-61
2022/03/31 00:46:27;;;;;;;;;;;4.50;99.90;;;;;;5126796;27;19937;-62
2022/03/31 00:48:52;;;;;;;;;;;4.50;99.90;;;;;;5123515;27;19907;-61
2022/03/31 00:51:18;;;;;;;;;;;4.50;99.90;;;;;;5133855;27;19919;-61
2022/03/31 00:53:47;;;;;;;;;;;4.50;99.90;;;;;;5123281;27;19947;-62
2022/03/31 00:56:14;;;;;;;;;;;4.40;99.90;;;;;;5129851;27;19912;-61
2022/03/31 00:58:40;;;;;;;;;;;4.40;99.90;;;;;;5108464;28;19912;-61
2022/03/31 01:01:05;;;;;;;;;;;4.40;99.90;;;;;;5133297;27;20323;-61
2022/03/31 01:03:31;;;;;;;;;;;4.40;99.90;;;;;;5132540;27;19943;-61
2022/03/31 01:05:56;;;;;;;;;;;4.30;99.90;;;;;;5130442;27;20254;-62
2022/03/31 01:08:22;;;;;;;;;;;4.30;99.90;;;;;;5124003;27;20263;-61
2022/03/31 01:10:49;;;;;;;;;;;4.30;99.90;;;;;;5128119;27;19912;-61
2022/03/31 01:13:15;;;;;;;;;;;4.30;99.90;;;;;;5121021;27;19923;-62
2022/03/31 01:15:41;;;;;;;;;;;4.30;99.90;;;;;;5116746;28;19916;-62
2022/03/31 01:18:06;;;;;;;;;;;4.30;99.90;;;;;;5129058;27;20353;-61
2022/03/31 01:20:33;;;;;;;;;;;4.30;99.90;;;;;;5123784;27;20384;-62
2022/03/31 01:22:59;;;;;;;;;;;4.30;99.90;;;;;;5109669;27;19915;-62
2022/03/31 01:25:25;;;;;;;;;;;4.30;99.90;;;;;;5112566;27;19907;-62
2022/03/31 01:27:51;;;;;;;;;;;4.30;99.90;;;;;;5133448;27;20322;-62
2022/03/31 01:30:18;;;;;;;;;;;4.30;99.90;;;;;;5124332;27;19908;-61
2022/03/31 01:32:44;;;;;;;;;;;4.20;99.90;;;;;;5119346;27;19919;-61
2022/03/31 01:35:10;;;;;;;;;;;4.20;99.90;;;;;;5129292;27;19919;-62
2022/03/31 01:37:36;;;;;;;;;;;4.20;99.90;;;;;;5111396;27;19912;-62
2022/03/31 01:40:02;;;;;;;;;;;4.20;99.90;;;;;;5118510;27;19987;-63
2022/03/31 01:42:28;;;;;;;;;;;4.20;99.90;;;;;;5116886;27;19912;-61
2022/03/31 01:44:54;;;;;;;;;;;4.20;99.90;;;;;;5110121;27;19918;-62
2022/03/31 01:47:19;;;;;;;;;;;4.20;99.90;;;;;;5129887;27;19951;-61
2022/03/31 01:49:45;;;;;;;;;;;4.30;99.90;;;;;;5130567;27;19919;-60
2022/03/31 01:52:10;;;;;;;;;;;4.30;99.90;;;;;;5102753;27;20396;-62
2022/03/31 01:54:36;;;;;;;;;;;4.30;99.90;;;;;;5113359;27;19961;-61
2022/03/31 01:57:03;;;;;;;;;;;4.20;99.90;;;;;;5111398;27;19982;-61
2022/03/31 01:59:33;;;;;;;;;;;4.30;99.90;;;;;;5126695;27;19918;-64
2022/03/31 02:01:58;;;;;;;;;;;4.30;99.90;;;;;;5112627;27;19919;-62
2022/03/31 02:04:24;;;;;;;;;;;4.40;99.90;;;;;;5131150;27;19911;-62
2022/03/31 02:06:49;;;;;;;;;;;4.40;99.90;;;;;;5106426;27;19937;-62
2022/03/31 02:09:15;;;;;;;;;;;4.40;99.90;;;;;;5129808;27;19937;-62
2022/03/31 02:11:41;;;;;;;;;;;4.40;99.90;;;;;;5128608;27;19985;-61
2022/03/31 02:14:06;;;;;;;;;;;4.40;99.90;;;;;;5128638;27;19919;-62
2022/03/31 02:16:32;;;;;;;;;;;4.40;99.90;;;;;;5123944;27;19912;-62
2022/03/31 02:18:57;;;;;;;;;;;4.40;99.90;;;;;;5124931;27;19912;-61
2022/03/31 02:21:23;;;;;;;;;;;4.40;99.90;;;;;;5129234;27;20014;-61
2022/03/31 02:23:49;;;;;;;;;;;4.40;99.90;;;;;;5124747;27;19911;-60
2022/03/31 02:26:14;;;;;;;;;;;4.20;99.90;;;;;;5098253;27;19911;-61
2022/03/31 02:28:40;;;;;;;;;;;4.30;99.90;;;;;;5121019;27;19912;-61
2022/03/31 02:31:05;;;;;;;;;;;4.30;99.90;;;;;;5122974;27;20356;-62
2022/03/31 02:33:31;;;;;;;;;;;4.30;99.90;;;;;;5125213;27;19926;-62
2022/03/31 02:35:57;;;;;;;;;;;4.20;99.90;;;;;;5128166;27;19911;-61
2022/03/31 02:38:22;;;;;;;;;;;4.20;99.90;;;;;;5126427;27;19947;-62
2022/03/31 02:40:48;;;;;;;;;;;4.10;99.90;;;;;;5111106;27;19911;-63
2022/03/31 02:43:13;;;;;;;;;;;4.10;99.90;;;;;;5120344;27;20039;-62
2022/03/31 02:45:39;;;;;;;;;;;4.10;99.90;;;;;;5108158;27;19939;-62
2022/03/31 02:48:05;;;;;;;;;;;4.10;99.90;;;;;;5131228;27;19947;-63
2022/03/31 02:50:30;;;;;;;;;;;4.10;99.90;;;;;;5124548;27;19994;-61
2022/03/31 02:55:40;;;;;;;;;;;4.00;99.90;;;;;;5121170;27;20366;-63
2022/03/31 02:58:07;;;;;;;;;;;4.00;99.90;;;;;;5132497;27;19918;-61
2022/03/31 03:00:34;;;;;;;;;;;4.00;99.90;;;;;;5103231;27;19911;-62
2022/03/31 03:03:01;;;;;;;;;;;4.00;99.90;;;;;;5123584;27;19911;-62
2022/03/31 03:05:27;;;;;;;;;;;4.10;99.90;;;;;;5107267;27;20326;-62
2022/03/31 03:07:52;;;;;;;;;;;4.00;99.90;;;;;;5127936;27;19945;-61
2022/03/31 03:10:18;;;;;;;;;;;4.00;99.90;;;;;;5129951;27;19911;-62
2022/03/31 03:12:44;;;;;;;;;;;3.90;99.90;;;;;;5121897;27;19964;-62
2022/03/31 03:15:10;;;;;;;;;;;3.90;99.90;;;;;;5109085;27;19920;-61
2022/03/31 03:17:45;;;;;;;;;;;3.90;99.90;;;;;;5128317;27;19934;-62
2022/03/31 03:20:13;;;;;;;;;;;3.80;99.90;;;;;;5115828;27;19912;-62
2022/03/31 03:22:56;;;;;;;;;;;3.70;99.90;;;;;;5122440;27;19938;-62
2022/03/31 03:25:23;;;;;;;;;;;3.80;99.90;;;;;;5129283;27;20172;-63
2022/03/31 03:27:49;;;;;;;;;;;3.80;99.90;;;;;;5108895;27;19912;-62
2022/03/31 03:30:15;;;;;;;;;;;3.90;99.90;;;;;;5114411;27;19912;-62
2022/03/31 03:32:41;;;;;;;;;;;3.80;99.90;;;;;;5108562;27;20023;-62
2022/03/31 03:35:08;;;;;;;;;;;3.90;99.90;;;;;;5121291;27;19960;-62
2022/03/31 03:37:34;;;;;;;;;;;3.80;99.90;;;;;;5105867;27;20655;-62
2022/03/31 03:40:03;;;;;;;;;;;3.80;99.90;;;;;;5119316;27;19912;-63
2022/03/31 03:42:45;;;;;;;;;;;3.70;99.90;;;;;;5115662;27;19919;-62
2022/03/31 03:45:11;;;;;;;;;;;3.70;99.90;;;;;;5120470;28;19919;-62
2022/03/31 03:47:37;;;;;;;;;;;3.60;99.90;;;;;;5126483;27;19912;-68
2022/03/31 03:50:03;;;;;;;;;;;3.60;99.90;;;;;;5110627;28;19964;-63
2022/03/31 03:52:30;;;;;;;;;;;3.60;99.90;;;;;;5105154;28;20416;-62
2022/03/31 03:54:56;;;;;;;;;;;3.60;99.90;;;;;;5117159;28;19963;-62
2022/03/31 03:57:23;;;;;;;;;;;3.60;99.90;;;;;;5125130;28;19955;-62
2022/03/31 03:59:49;;;;;;;;;;;3.60;99.90;;;;;;5130362;28;19998;-63
2022/03/31 04:02:14;;;;;;;;;;;3.70;99.90;;;;;;5111729;28;19915;-62
2022/03/31 04:04:40;;;;;;;;;;;3.60;99.90;;;;;;5101236;28;20395;-62
2022/03/31 04:07:06;;;;;;;;;;;3.70;99.90;;;;;;5121782;27;20429;-61
2022/03/31 04:09:31;;;;;;;;;;;3.60;99.90;;;;;;5132869;27;20014;-62
2022/03/31 04:11:57;;;;;;;;;;;3.60;99.90;;;;;;5123899;27;19923;-63
2022/03/31 04:14:22;;;;;;;;;;;3.60;99.90;;;;;;5129317;27;19920;-61
2022/03/31 04:16:48;;;;;;;;;;;3.60;99.90;;;;;;5135315;27;19943;-61
2022/03/31 04:19:14;;;;;;;;;;;3.60;99.90;;;;;;5106880;27;19951;-62
2022/03/31 04:21:42;;;;;;;;;;;3.60;99.90;;;;;;5128763;27;19918;-62
2022/03/31 04:24:08;;;;;;;;;;;3.60;99.90;;;;;;5126534;27;19911;-62
2022/03/31 04:26:34;;;;;;;;;;;3.50;99.90;;;;;;5125169;27;20372;-63
2022/03/31 04:29:02;;;;;;;;;;;3.50;99.90;;;;;;5131854;27;19911;-63
2022/03/31 04:31:29;;;;;;;;;;;3.40;99.90;;;;;;5132908;27;20641;-62
2022/03/31 04:33:55;;;;;;;;;;;3.40;99.90;;;;;;5134044;27;19916;-62
2022/03/31 04:36:20;;;;;;;;;;;3.40;99.90;;;;;;5138866;27;19912;-62
2022/03/31 04:38:46;;;;;;;;;;;3.20;99.90;;;;;;5133781;27;19931;-62
2022/03/31 04:41:12;;;;;;;;;;;3.20;99.90;;;;;;5113999;27;19919;-64
2022/03/31 04:43:38;;;;;;;;;;;3.20;99.90;;;;;;5136110;27;19947;-62
2022/03/31 04:46:04;;;;;;;;;;;3.10;99.90;;;;;;5121494;27;20313;-62
2022/03/31 04:48:30;;;;;;;;;;;3.00;99.90;;;;;;5128862;27;19912;-62
2022/03/31 04:50:56;;;;;;;;;;;3.00;99.90;;;;;;5129549;27;20250;-62
2022/03/31 04:53:21;;;;;;;;;;;3.00;99.90;;;;;;5103620;27;19922;-62
2022/03/31 04:55:47;;;;;;;;;;;3.00;99.90;;;;;;5127859;27;19916;-61
2022/03/31 04:58:12;;;;;;;;;;;2.90;99.90;;;;;;5132843;27;19959;-62
2022/03/31 05:00:38;;;;;;;;;;;2.90;99.90;;;;;;5123308;27;19971;-63
2022/03/31 05:03:04;;;;;;;;;;;2.90;99.90;;;;;;5107093;28;19919;-63
2022/03/31 05:05:29;;;;;;;;;;;3.00;99.90;;;;;;5123405;27;19912;-62
2022/03/31 05:07:55;;;;;;;;;;;2.90;99.90;;;;;;5130634;27;19964;-62
2022/03/31 05:10:21;;;;;;;;;;;2.90;99.90;;;;;;5135915;27;20002;-62
2022/03/31 05:12:47;;;;;;;;;;;2.80;99.90;;;;;;5135451;27;19915;-63
2022/03/31 05:15:12;;;;;;;;;;;2.70;99.90;;;;;;5120062;27;19966;-63
2022/03/31 05:17:38;;;;;;;;;;;2.80;99.90;;;;;;5129022;27;19947;-63
2022/03/31 05:20:05;;;;;;;;;;;2.80;99.90;;;;;;5121000;27;19912;-63
2022/03/31 05:22:30;;;;;;;;;;;2.70;99.90;;;;;;5120540;27;19957;-62
2022/03/31 05:24:56;;;;;;;;;;;2.70;99.90;;;;;;5126291;27;19919;-62
2022/03/31 05:27:22;;;;;;;;;;;2.70;99.90;;;;;;5124684;27;19916;-62
2022/03/31 05:29:48;;;;;;;;;;;2.80;99.90;;;;;;5113052;27;19911;-63
2022/03/31 05:32:13;;;;;;;;;;;2.80;99.90;;;;;;5124316;27;19920;-62
2022/03/31 05:34:39;;;;;;;;;;;2.70;99.90;;;;;;5125158;27;19911;-63
2022/03/31 05:37:05;;;;;;;;;;;2.70;99.90;;;;;;5131219;27;19911;-62
2022/03/31 05:39:32;;;;;;;;;;;2.60;99.90;;;;;;5119138;27;19912;-62
2022/03/31 05:41:58;;;;;;;;;;;2.60;99.90;;;;;;5134672;27;19916;-62
2022/03/31 05:44:23;;;;;;;;;;;2.50;99.90;;;;;;5121643;27;19964;-62
2022/03/31 05:46:49;;;;;;;;;;;2.50;99.90;;;;;;5109245;27;20007;-63
2022/03/31 05:49:15;;;;;;;;;;;2.50;99.90;;;;;;5134501;27;19911;-63
2022/03/31 05:51:41;;;;;;;;;;;2.40;99.90;;;;;;5131519;27;19926;-62
2022/03/31 05:54:07;;;;;;;;;;;2.40;99.90;;;;;;5134489;27;19912;-62
2022/03/31 05:56:36;;;;;;;;;;;2.30;99.90;;;;;;5129318;27;19931;-62
2022/03/31 05:59:01;;;;;;;;;;;2.30;99.90;;;;;;5130295;27;19911;-63
2022/03/31 06:01:27;;;;;;;;;;;2.30;99.90;;;;;;5131305;27;19911;-63
2022/03/31 06:03:55;;;;;;;;;;;2.30;99.90;;;;;;5131214;27;19912;-63
2022/03/31 06:06:20;;;;;;;;;;;2.30;99.90;;;;;;5134608;27;19919;-64
2022/03/31 06:08:46;;;;;;;;;;;2.20;99.90;;;;;;5127525;27;19911;-61
2022/03/31 06:11:11;;;;;;;;;;;2.20;99.90;;;;;;5135690;27;20394;-63
2022/03/31 06:13:37;;;;;;;;;;;2.30;99.90;;;;;;5126302;27;20321;-63
2022/03/31 06:16:03;;;;;;;;;;;2.30;99.90;;;;;;5121162;27;20043;-62
2022/03/31 06:18:29;;;;;;;;;;;2.30;99.90;;;;;;5127694;27;19912;-62
2022/03/31 06:20:54;;;;;;;;;;;2.30;99.90;;;;;;5133761;27;19956;-64
2022/03/31 06:23:20;;;;;;;;;;;2.30;99.90;;;;;;5129821;27;20269;-63
2022/03/31 06:25:46;;;;;;;;;;;2.30;99.90;;;;;;5123154;27;19926;-62
2022/03/31 06:28:14;;;;;;;;;;;2.30;99.90;;;;;;5114984;27;20333;-62
2022/03/31 06:30:39;;;;;;;;;;;2.20;99.90;;;;;;5129265;27;20024;-63
2022/03/31 06:33:05;;;;;;;;;;;2.10;99.90;;;;;;5122963;27;20018;-63
2022/03/31 06:35:30;;;;;;;;;;;2.20;99.90;;;;;;5125339;27;19911;-61
2022/03/31 06:37:56;;;;;;;;;;;2.20;99.90;;;;;;5121287;27;19912;-63
2022/03/31 06:40:21;;;;;;;;;;;2.20;99.90;;;;;;5120480;27;19918;-62
2022/03/31 06:42:47;;;;;;;;;;;2.10;99.90;;;;;;5130004;27;19918;-63
2022/03/31 06:45:15;;;;;;;;;;;2.20;99.90;;;;;;5121719;27;19918;-66
2022/03/31 06:47:41;;;;;;;;;;;2.20;99.90;;;;;;5121578;27;20322;-62
2022/03/31 06:50:07;;;;;;;;;;;2.30;99.90;;;;;;5125917;27;19919;-63
2022/03/31 06:52:33;;;;;;;;;;;2.30;99.90;;;;;;5124804;27;19972;-62
2022/03/31 06:54:59;;;;;;;;;;;2.30;99.90;;;;;;5122218;27;19916;-62
2022/03/31 06:57:24;;;;;;;;;;;2.30;99.90;;;;;;5101476;27;19911;-62
2022/03/31 06:59:53;;;;;;;;;;;2.40;99.90;;;;;;5106006;27;20346;-63
2022/03/31 07:02:19;;;;;;;;;;;2.40;99.90;;;;;;5123168;27;20014;-62
2022/03/31 07:04:44;;;;;;;;;;;2.40;99.90;;;;;;5109563;27;19990;-62
2022/03/31 07:07:10;;;;;;;;;;;2.50;99.90;;;;;;5127184;27;19919;-63
2022/03/31 07:09:35;;;;;;;;;;;2.50;99.90;;;;;;5126074;27;19986;-63
2022/03/31 07:12:01;;;;;;;;;;;2.70;99.90;;;;;;5127723;27;19923;-63
2022/03/31 07:14:28;;;;;;;;;;;2.70;99.90;;;;;;5130297;27;19912;-62
2022/03/31 07:16:54;;;;;;;;;;;2.70;99.90;;;;;;5132290;27;19972;-62
2022/03/31 07:19:19;;;;;;;;;;;2.70;99.90;;;;;;5111602;27;19998;-67
2022/03/31 07:21:45;;;;;;;;;;;2.80;99.90;;;;;;5126590;27;20006;-63
2022/03/31 07:24:11;;;;;;;;;;;2.80;99.90;;;;;;5127452;27;20292;-63
2022/03/31 07:26:37;;;;;;;;;;;2.90;99.90;;;;;;5109758;28;19911;-64
2022/03/31 07:29:03;;;;;;;;;;;2.90;99.90;;;;;;5128592;27;19915;-62
2022/03/31 07:31:29;;;;;;;;;;;3.00;99.90;;;;;;5115386;27;19973;-65
2022/03/31 07:33:56;;;;;;;;;;;3.00;99.90;;;;;;5106871;28;19934;-61
2022/03/31 07:36:21;;;;;;;;;;;3.10;99.90;;;;;;5116837;27;19911;-65
2022/03/31 07:38:47;;;;;;;;;;;3.10;99.90;;;;;;5139288;27;19988;-68
2022/03/31 07:41:14;;;;;;;;;;;3.10;99.90;;;;;;5148406;27;19903;-62
2022/03/31 07:43:41;;;;;;;;;;;3.30;99.90;;;;;;5120232;28;19911;-63
2022/03/31 07:46:06;;;;;;;;;;;3.30;99.90;;;;;;5131170;27;19967;-66
2022/03/31 07:48:32;;;;;;;;;;;3.30;99.90;;;;;;5124398;28;19911;-63
2022/03/31 07:50:59;;;;;;;;;;;3.30;99.90;;;;;;5145041;27;19938;-63
2022/03/31 07:53:32;;;;;;;;;;;3.30;99.90;;;;;;5143844;27;19911;-63
2022/03/31 07:55:59;;;;;;;;;;;3.40;99.90;;;;;;5132344;28;19906;-63
2022/03/31 07:58:25;;;;;;;;;;;3.50;99.90;;;;;;5148376;28;19929;-64
2022/03/31 08:00:52;;;;;;;;;;;3.50;99.90;;;;;;5149664;27;19911;-64
2022/03/31 08:03:18;;;;;;;;;;;3.50;99.90;;;;;;5126214;28;19922;-63
2022/03/31 08:05:44;;;;;;;;;;;3.50;99.90;;;;;;5144113;27;19919;-61
2022/03/31 08:08:09;;;;;;;;;;;3.60;99.90;;;;;;5143412;28;20029;-64
2022/03/31 08:10:35;;;;;;;;;;;3.70;99.90;;;;;;5139463;27;19900;-63
2022/03/31 08:13:01;;;;;;;;;;;3.80;99.90;;;;;;5153647;27;19907;-63
2022/03/31 08:15:26;;;;;;;;;;;3.90;99.90;;;;;;5129849;28;20409;-63
2022/03/31 08:17:52;;;;;;;;;;;3.90;99.90;;;;;;5155893;27;19935;-64
2022/03/31 08:20:18;;;;;;;;;;;3.90;99.90;;;;;;5145057;27;19958;-64
2022/03/31 08:22:45;;;;;;;;;;;4.00;99.90;;;;;;5142393;28;20402;-64
2022/03/31 08:25:11;;;;;;;;;;;3.90;99.90;;;;;;5106557;28;19912;-62
2022/03/31 08:27:41;;;;;;;;;;;3.90;99.90;;;;;;5140057;27;20009;-69
2022/03/31 08:30:11;;;;;;;;;;;3.90;99.90;;;;;;5147995;27;19904;-65
2022/03/31 08:32:39;;;;;;;;;;;3.90;99.90;;;;;;5153837;27;19920;-63
2022/03/31 08:35:09;;;;;;;;;;;4.10;99.90;;;;;;5135030;28;19982;-63
2022/03/31 08:37:35;;;;;;;;;;;4.30;99.90;;;;;;5156044;28;19900;-64
2022/03/31 08:40:00;;;;;;;;;;;4.20;99.90;;;;;;5138512;28;19940;-63
2022/03/31 08:42:26;;;;;;;;;;;4.20;99.90;;;;;;5142588;27;19911;-63
2022/03/31 08:44:52;;;;;;;;;;;4.10;99.90;;;;;;5141070;27;19908;-62
2022/03/31 08:47:19;;;;;;;;;;;4.10;99.90;;;;;;5133812;27;19935;-63
2022/03/31 08:49:47;;;;;;;;;;;4.20;99.90;;;;;;5150670;27;19903;-62
2022/03/31 08:52:13;;;;;;;;;;;4.20;99.90;;;;;;5149931;27;20937;-63
2022/03/31 08:54:42;;;;;;;;;;;4.40;99.90;;;;;;5150313;27;19904;-62
2022/03/31 08:57:08;;;;;;;;;;;4.60;99.90;;;;;;5142342;27;19900;-62
2022/03/31 08:59:33;;;;;;;;;;;4.60;99.90;;;;;;5141934;27;19903;-62
2022/03/31 09:01:59;;;;;;;;;;;4.50;99.90;;;;;;5133036;27;19922;-62
2022/03/31 09:04:25;;;;;;;;;;;4.40;99.90;;;;;;5146737;27;19963;-63
2022/03/31 09:07:07;;;;;;;;;;;4.40;99.90;;;;;;5148986;27;19930;-63
2022/03/31 09:09:46;;;;;;;;;;;4.50;99.90;;;;;;5127980;27;19939;-64
2022/03/31 09:12:12;;;;;;;;;;;4.60;99.90;;;;;;5134789;27;19967;-62
2022/03/31 09:14:37;;;;;;;;;;;4.60;99.90;;;;;;5147354;27;19907;-63
2022/03/31 09:17:11;;;;;;;;;;;4.60;99.90;;;;;;5138798;27;19924;-63
2022/03/31 09:19:37;;;;;;;;;;;4.70;99.90;;;;;;5154802;27;19912;-62
2022/03/31 09:22:02;;;;;;;;;;;4.80;99.90;;;;;;5151954;27;19946;-63
2022/03/31 09:24:29;;;;;;;;;;;4.90;99.90;;;;;;5133421;28;19907;-65
2022/03/31 09:26:59;;;;;;;;;;;4.90;99.90;;;;;;5138996;27;19904;-64
2022/03/31 09:29:25;;;;;;;;;;;4.90;99.90;;;;;;5153839;27;19899;-62
2022/03/31 09:31:51;;;;;;;;;;;4.90;99.90;;;;;;5154310;27;19918;-63
2022/03/31 09:34:17;;;;;;;;;;;5.00;99.90;;;;;;5152533;27;19904;-63
2022/03/31 09:36:47;;;;;;;;;;;5.10;99.90;;;;;;5151564;27;19915;-64
2022/03/31 09:39:17;;;;;;;;;;;5.10;99.90;;;;;;5149099;27;19941;-63
2022/03/31 09:41:44;;;;;;;;;;;5.30;99.90;;;;;;5151449;27;19971;-64
2022/03/31 09:44:21;;;;;;;;;;;5.30;99.90;;;;;;5141487;27;19939;-63
2022/03/31 09:46:47;;;;;;;;;;;5.30;99.90;;;;;;5137272;27;19956;-61
2022/03/31 09:49:14;;;;;;;;;;;5.30;99.90;;;;;;5151983;27;19974;-65
2022/03/31 09:51:41;;;;;;;;;;;5.30;99.90;;;;;;5149576;27;19904;-63
2022/03/31 09:54:07;;;;;;;;;;;5.20;99.90;;;;;;5142375;27;19938;-64
2022/03/31 09:56:38;;;;;;;;;;;5.20;99.90;;;;;;5153373;27;19915;-69
2022/03/31 09:59:04;;;;;;;;;;;5.20;99.90;;;;;;5145117;27;19911;-62
2022/03/31 10:01:30;;;;;;;;;;;5.30;99.90;;;;;;5155240;27;19915;-63
2022/03/31 10:03:59;;;;;;;;;;;5.30;99.90;;;;;;5153465;27;19923;-63
2022/03/31 10:06:25;;;;;;;;;;;5.30;99.90;;;;;;5143314;27;19957;-63
2022/03/31 10:08:51;;;;;;;;;;;5.20;99.90;;;;;;5151202;27;19975;-63
2022/03/31 10:11:20;;;;;;;;;;;5.20;99.90;;;;;;5152110;27;19919;-63
2022/03/31 10:13:54;;;;;;;;;;;5.50;99.90;;;;;;5152700;27;19923;-63
2022/03/31 10:16:34;;;;;;;;;;;5.70;99.90;;;;;;5149961;27;19926;-63
2022/03/31 10:18:59;;;;;;;;;;;5.60;99.90;;;;;;5135789;27;19963;-63
2022/03/31 10:21:26;;;;;;;;;;;5.60;99.90;;;;;;5141516;27;19919;-63
2022/03/31 10:26:36;;;;;;;;;;;5.80;99.90;;;;;;5142109;27;19936;-62
2022/03/31 10:29:08;;;;;;;;;;;5.80;99.90;;;;;;5121125;27;20384;-63
2022/03/31 10:31:54;;;;;;;;;;;5.90;99.90;;;;;;5137823;27;19986;-64
2022/03/31 10:34:19;;;;;;;;;;;5.90;99.90;;;;;;5145376;27;20622;-62
2022/03/31 10:36:49;;;;;;;;;;;5.90;99.90;;;;;;5147520;27;19919;-63
2022/03/31 10:39:18;;;;;;;;;;;6.00;99.90;;;;;;5144540;27;19911;-62
2022/03/31 10:41:45;;;;;;;;;;;5.80;99.90;;;;;;5144744;27;19938;-64
2022/03/31 10:44:14;;;;;;;;;;;5.70;99.90;;;;;;5135353;27;19922;-68
2022/03/31 10:46:41;;;;;;;;;;;5.70;99.90;;;;;;5143363;27;19978;-63
2022/03/31 10:49:12;;;;;;;;;;;5.80;99.90;;;;;;5141296;27;19912;-63
2022/03/31 10:51:42;;;;;;;;;;;5.90;99.90;;;;;;5125122;27;19926;-63
2022/03/31 10:54:14;;;;;;;;;;;5.90;99.90;;;;;;5139654;27;19915;-63
2022/03/31 10:56:40;;;;;;;;;;;6.00;99.90;;;;;;5143178;27;19926;-63
2022/03/31 10:59:06;;;;;;;;;;;6.10;99.90;;;;;;5135075;27;19920;-68
2022/03/31 11:01:33;;;;;;;;;;;6.20;99.90;;;;;;5124262;27;19932;-64
2022/03/31 11:04:04;;;;;;;;;;;6.40;99.90;;;;;;5143212;27;19911;-63
2022/03/31 11:06:30;;;;;;;;;;;6.60;99.90;;;;;;5128265;27;19947;-63
2022/03/31 11:08:55;;;;;;;;;;;6.60;99.90;;;;;;5143338;27;19908;-66
2022/03/31 11:11:25;;;;;;;;;;;6.40;99.90;;;;;;5120129;27;19926;-63
2022/03/31 11:13:51;;;;;;;;;;;6.40;99.90;;;;;;5138390;27;19977;-64
2022/03/31 11:16:17;;;;;;;;;;;6.60;99.90;;;;;;5125472;27;19924;-63
2022/03/31 11:18:52;;;;;;;;;;;6.80;99.90;;;;;;5144838;27;20151;-63
2022/03/31 11:21:18;;;;;;;;;;;6.70;99.90;;;;;;5124061;28;19922;-62
2022/03/31 11:23:47;;;;;;;;;;;6.60;99.90;;;;;;5145191;27;19904;-65
2022/03/31 11:26:16;;;;;;;;;;;6.50;99.90;;;;;;5146371;27;19904;-65
2022/03/31 11:28:45;;;;;;;;;;;6.50;99.90;;;;;;5144412;27;19963;-64
2022/03/31 11:31:11;;;;;;;;;;;6.80;99.90;;;;;;5148278;27;19920;-64
2022/03/31 11:33:39;;;;;;;;;;;7.00;99.90;;;;;;5150421;27;20259;-62
2022/03/31 11:36:05;;;;;;;;;;;7.20;99.90;;;;;;5130338;27;19972;-64
2022/03/31 11:38:31;;;;;;;;;;;7.60;99.90;;;;;;5114866;27;20384;-64
2022/03/31 11:40:56;;;;;;;;;;;7.40;99.90;;;;;;5138878;27;19911;-64
2022/03/31 11:43:22;;;;;;;;;;;6.90;99.90;;;;;;5137407;27;19935;-62
2022/03/31 11:45:53;;;;;;;;;;;6.80;99.90;;;;;;5115549;28;19911;-64
2022/03/31 11:48:19;;;;;;;;;;;6.60;99.90;;;;;;5129569;27;19991;-62
2022/03/31 11:50:52;;;;;;;;;;;6.40;99.90;;;;;;5133227;28;19911;-63
2022/03/31 11:53:25;;;;;;;;;;;6.50;99.90;;;;;;5119463;27;19919;-63
2022/03/31 11:55:54;;;;;;;;;;;6.90;99.90;;;;;;5154955;27;19918;-71
2022/03/31 11:58:20;;;;;;;;;;;7.30;99.90;;;;;;5128817;28;20002;-64
2022/03/31 12:00:48;;;;;;;;;;;7.00;99.90;;;;;;5141100;28;19912;-63
2022/03/31 12:03:15;;;;;;;;;;;6.10;99.90;;;;;;5128266;28;19916;-64
2022/03/31 12:05:41;;;;;;;;;;;5.40;99.90;;;;;;5116780;28;20003;-63
2022/03/31 12:08:07;;;;;;;;;;;5.10;99.90;;;;;;5142969;27;19919;-63
2022/03/31 12:10:33;;;;;;;;;;;5.10;99.90;;;;;;5143108;27;19920;-63
2022/03/31 12:13:01;;;;;;;;;;;5.10;99.90;;;;;;5137527;27;20002;-62
2022/03/31 12:15:28;;;;;;;;;;;5.30;99.90;;;;;;5115682;28;19923;-65
2022/03/31 12:17:57;;;;;;;;;;;5.40;99.90;;;;;;5127717;28;20364;-63
2022/03/31 12:20:22;;;;;;;;;;;5.60;99.90;;;;;;5135385;27;19911;-62
2022/03/31 12:22:48;;;;;;;;;;;6.00;99.90;;;;;;5144196;28;19911;-63
2022/03/31 12:25:24;;;;;;;;;;;6.30;99.90;;;;;;5141268;28;19912;-62
2022/03/31 12:27:50;;;;;;;;;;;6.80;99.90;;;;;;5129417;27;20292;-67
2022/03/31 12:30:15;;;;;;;;;;;7.20;99.90;;;;;;5149010;27;19939;-63
2022/03/31 12:32:45;;;;;;;;;;;7.40;97.60;;;;;;5149327;27;19920;-64
2022/03/31 12:35:10;;;;;;;;;;;7.60;97.80;;;;;;5146914;27;19920;-63
2022/03/31 12:37:39;;;;;;;;;;;7.70;98.70;;;;;;5144142;27;19983;-63
2022/03/31 12:40:09;;;;;;;;;;;7.20;99.90;;;;;;5133326;27;19918;-63
2022/03/31 12:42:36;;;;;;;;;;;6.80;99.90;;;;;;5149930;27;19971;-62
2022/03/31 12:45:15;;;;;;;;;;;6.40;99.90;;;;;;5135272;27;19991;-64
2022/03/31 12:47:41;;;;;;;;;;;6.20;99.90;;;;;;5141777;27;19974;-62
2022/03/31 12:50:17;;;;;;;;;;;6.20;99.90;;;;;;5139046;27;19916;-65
2022/03/31 12:52:58;;;;;;;;;;;6.40;99.90;;;;;;5124918;27;19958;-63
2022/03/31 12:55:31;;;;;;;;;;;6.80;99.90;;;;;;5144655;27;19919;-64
2022/03/31 12:57:57;;;;;;;;;;;7.30;99.90;;;;;;5152074;27;19923;-63
2022/03/31 13:00:23;;;;;;;;;;;7.80;99.90;;;;;;5148639;27;19919;-62
2022/03/31 13:02:48;;;;;;;;;;;7.80;99.90;;;;;;5145725;27;19911;-66
2022/03/31 13:05:21;;;;;;;;;;;7.20;99.90;;;;;;5138367;27;19988;-63
2022/03/31 13:07:47;;;;;;;;;;;6.50;99.90;;;;;;5142106;27;20038;-62
2022/03/31 13:10:12;;;;;;;;;;;6.10;99.90;;;;;;5140901;27;19935;-64
2022/03/31 13:12:38;;;;;;;;;;;5.90;99.90;;;;;;5132977;27;19927;-63
2022/03/31 13:15:05;;;;;;;;;;;5.90;99.90;;;;;;5149455;27;19964;-65
2022/03/31 13:17:30;;;;;;;;;;;6.20;99.90;;;;;;5155204;27;19915;-63
2022/03/31 13:19:57;;;;;;;;;;;6.50;99.90;;;;;;5144692;27;19944;-63
2022/03/31 13:22:24;;;;;;;;;;;6.80;99.90;;;;;;5148117;27;19900;-63
2022/03/31 13:24:52;;;;;;;;;;;7.00;99.90;;;;;;5127996;27;19915;-62
2022/03/31 13:27:18;;;;;;;;;;;7.10;99.90;;;;;;5145700;27;19923;-64
2022/03/31 13:29:44;;;;;;;;;;;7.20;99.90;;;;;;5132094;27;20420;-63
2022/03/31 13:32:10;;;;;;;;;;;7.20;99.50;;;;;;5144631;27;19911;-65
2022/03/31 13:34:36;;;;;;;;;;;7.20;99.90;;;;;;5154375;27;20223;-66
2022/03/31 13:37:03;;;;;;;;;;;7.30;99.90;;;;;;5157716;27;19958;-63
2022/03/31 13:39:30;;;;;;;;;;;7.40;99.50;;;;;;5138409;27;19944;-63
2022/03/31 13:41:56;;;;;;;;;;;7.70;98.60;;;;;;5124571;27;19920;-65
2022/03/31 13:44:22;;;;;;;;;;;7.70;98.00;;;;;;5142886;27;19918;-61
2022/03/31 13:46:48;;;;;;;;;;;7.00;99.50;;;;;;5137224;27;19925;-63
2022/03/31 13:49:14;;;;;;;;;;;6.00;99.90;;;;;;5125596;27;19912;-62
2022/03/31 13:51:43;;;;;;;;;;;5.30;99.90;;;;;;5122579;27;20383;-63
2022/03/31 13:54:09;;;;;;;;;;;5.30;99.90;;;;;;5125043;27;19911;-63
2022/03/31 13:56:38;;;;;;;;;;;5.60;99.90;;;;;;5120060;27;19908;-62
2022/03/31 14:01:50;;;;;;;;;;;6.00;99.90;;;;;;5132937;27;19919;-62
2022/03/31 14:04:16;;;;;;;;;;;6.10;99.90;;;;;;5134443;27;19964;-62
2022/03/31 14:06:42;;;;;;;;;;;6.10;99.90;;;;;;5125722;27;19911;-63
2022/03/31 14:09:07;;;;;;;;;;;6.20;99.90;;;;;;5130633;27;19911;-64
2022/03/31 14:11:34;;;;;;;;;;;6.30;99.90;;;;;;5138169;27;19955;-62
2022/03/31 14:14:01;;;;;;;;;;;6.60;99.90;;;;;;5137639;27;19980;-62
2022/03/31 14:16:28;;;;;;;;;;;7.00;99.50;;;;;;5126751;27;19969;-63
2022/03/31 14:18:54;;;;;;;;;;;7.40;98.30;;;;;;5148352;27;19912;-63
2022/03/31 14:21:20;;;;;;;;;;;7.90;97.90;;;;;;5153687;27;19910;-62
2022/03/31 14:23:47;;;;;;;;;;;8.00;96.40;;;;;;5141842;27;19943;-62
2022/03/31 14:26:13;;;;;;;;;;;8.10;95.10;;;;;;5114207;27;19999;-63
2022/03/31 14:28:39;;;;;;;;;;;8.00;94.60;;;;;;5111182;27;20288;-63
2022/03/31 14:31:05;;;;;;;;;;;7.90;95.00;;;;;;5128111;27;19911;-63
2022/03/31 14:33:31;;;;;;;;;;;7.60;96.80;;;;;;5112412;27;19919;-63
2022/03/31 14:35:57;;;;;;;;;;;7.00;98.30;;;;;;5122608;27;19933;-63
2022/03/31 14:38:25;;;;;;;;;;;6.70;99.90;;;;;;5107685;27;19927;-63
2022/03/31 14:40:55;;;;;;;;;;;6.70;99.90;;;;;;5118102;27;19912;-62